sensor_id;sensor_type;location;lat;lon;timestamp;pressure;altitude;pressure_sealevel;temperature;humidity
26839;BME280;40088;51.214;6.786;2023-04-04T00:03:50;102610.97;;;16.49;44.67
26839;BME280;40088;51.214;6.786;2023-04-04T00:13:51;102604.56;;;16.49;44.36
26839;BME280;40088;51.214;6.786;2023-04-04T00:23:52;102619.22;;;16.49;44.31
26839;BME280;40088;51.214;6.786;2023-04-04T00:33:53;102612.81;;;16.49;44.79
26839;BME280;40088;51.214;6.786;2023-04-04T00:43:54;102617.44;;;16.48;45.05
26839;BME280;40088;51.214;6.786;2023-04-04T00:53:54;102618.31;;;16.49;44.48
26839;BME280;40088;51.214;6.786;2023-04-04T01:03:54;102617.44;;;16.48;44.41
26839;BME280;40088;51.214;6.786;2023-04-04T01:13:55;102616.47;;;16.49;44.29
26839;BME280;40088;51.214;6.786;2023-04-04T01:24:00;102610.22;;;16.47;44.37
26839;BME280;40088;51.214;6.786;2023-04-04T01:34:37;102598.50;;;16.45;44.68
26839;BME280;40088;51.214;6.786;2023-04-04T01:44:40;102596.63;;;16.46;44.97
26839;BME280;40088;51.214;6.786;2023-04-04T01:54:40;102591.28;;;16.44;44.98
26839;BME280;40088;51.214;6.786;2023-04-04T02:04:40;102586.31;;;16.48;44.12
26839;BME280;40088;51.214;6.786;2023-04-04T02:14:41;102598.19;;;16.48;44.46
26839;BME280;40088;51.214;6.786;2023-04-04T02:24:41;102585.44;;;16.47;44.20
26839;BME280;40088;51.214;6.786;2023-04-04T02:34:42;102587.50;;;16.45;44.25
26839;BME280;40088;51.214;6.786;2023-04-04T02:44:42;102574.75;;;16.44;44.37
26839;BME280;40088;51.214;6.786;2023-04-04T02:54:42;102570.13;;;16.45;43.78
26839;BME280;40088;51.214;6.786;2023-04-04T03:04:43;102568.22;;;16.45;43.93
26839;BME280;40088;51.214;6.786;2023-04-04T03:14:44;102572.88;;;16.45;43.92
26839;BME280;40088;51.214;6.786;2023-04-04T03:24:44;102568.22;;;16.45;43.27
26839;BME280;40088;51.214;6.786;2023-04-04T03:34:44;102570.13;;;16.45;43.43
26839;BME280;40088;51.214;6.786;2023-04-04T03:44:44;102572.00;;;16.44;42.89
26839;BME280;40088;51.214;6.786;2023-04-04T03:54:45;102553.63;;;16.45;43.19
26839;BME280;40088;51.214;6.786;2023-04-04T04:04:45;102540.72;;;16.45;42.95
26839;BME280;40088;51.214;6.786;2023-04-04T04:14:45;102554.47;;;16.45;42.84
26839;BME280;40088;51.214;6.786;2023-04-04T04:24:46;102552.75;;;16.44;42.42
26839;BME280;40088;51.214;6.786;2023-04-04T04:34:46;102542.59;;;16.45;43.33
26839;BME280;40088;51.214;6.786;2023-04-04T04:44:47;102548.22;;;16.43;43.36
26839;BME280;40088;51.214;6.786;2023-04-04T04:54:47;102546.50;;;16.42;43.70
26839;BME280;40088;51.214;6.786;2023-04-04T05:04:50;102548.97;;;16.45;43.96
26839;BME280;40088;51.214;6.786;2023-04-04T05:14:50;102547.38;;;16.42;44.10
26839;BME280;40088;51.214;6.786;2023-04-04T05:24:50;102550.84;;;16.45;43.63
26839;BME280;40088;51.214;6.786;2023-04-04T05:34:51;102556.66;;;16.41;44.07
26839;BME280;40088;51.214;6.786;2023-04-04T05:44:51;102555.78;;;16.41;44.08
26839;BME280;40088;51.214;6.786;2023-04-04T05:54:52;102573.16;;;16.41;43.88
26839;BME280;40088;51.214;6.786;2023-04-04T06:04:52;102587.06;;;16.40;44.35
26839;BME280;40088;51.214;6.786;2023-04-04T06:14:52;102595.16;;;16.41;44.17
26839;BME280;40088;51.214;6.786;2023-04-04T06:24:52;102607.19;;;16.40;44.20
26839;BME280;40088;51.214;6.786;2023-04-04T06:34:53;102608.06;;;16.41;43.71
26839;BME280;40088;51.214;6.786;2023-04-04T06:44:53;102614.59;;;16.40;43.94
26839;BME280;40088;51.214;6.786;2023-04-04T06:54:54;102622.09;;;16.38;42.78
26839;BME280;40088;51.214;6.786;2023-04-04T07:04:54;102625.75;;;16.38;42.55
26839;BME280;40088;51.214;6.786;2023-04-04T07:14:54;102614.16;;;16.35;42.19
26839;BME280;40088;51.214;6.786;2023-04-04T07:24:54;102628.78;;;16.35;42.27
26839;BME280;40088;51.214;6.786;2023-04-04T07:34:55;102617.94;;;16.34;41.85
26839;BME280;40088;51.214;6.786;2023-04-04T07:44:55;102617.06;;;16.33;41.44
26839;BME280;40088;51.214;6.786;2023-04-04T07:54:56;102613.41;;;16.33;41.83
26839;BME280;40088;51.214;6.786;2023-04-04T08:04:56;102596.91;;;16.33;41.14
26839;BME280;40088;51.214;6.786;2023-04-04T08:14:56;102599.66;;;16.33;41.29
26839;BME280;40088;51.214;6.786;2023-04-04T08:24:56;102596.78;;;16.34;41.13
26839;BME280;40088;51.214;6.786;2023-04-04T08:34:57;102599.66;;;16.33;40.82
26839;BME280;40088;51.214;6.786;2023-04-04T08:45:00;102595.06;;;16.33;40.64
26839;BME280;40088;51.214;6.786;2023-04-04T08:55:04;102593.28;;;16.32;40.50
26839;BME280;40088;51.214;6.786;2023-04-04T09:05:05;102597.94;;;16.32;40.76
26839;BME280;40088;51.214;6.786;2023-04-04T09:15:08;102596.03;;;16.32;41.45
26839;BME280;40088;51.214;6.786;2023-04-04T09:25:09;102597.81;;;16.33;41.53
26839;BME280;40088;51.214;6.786;2023-04-04T09:35:10;102593.16;;;16.34;41.97
26839;BME280;40088;51.214;6.786;2023-04-04T09:45:13;102579.25;;;16.35;42.06
26839;BME280;40088;51.214;6.786;2023-04-04T09:55:14;102572.88;;;16.35;42.68
26839;BME280;40088;51.214;6.786;2023-04-04T10:05:15;102577.38;;;16.36;42.30
26839;BME280;40088;51.214;6.786;2023-04-04T10:15:17;102571.88;;;16.36;42.32
26839;BME280;40088;51.214;6.786;2023-04-04T10:25:17;102554.34;;;16.37;42.94
26839;BME280;40088;51.214;6.786;2023-04-04T10:35:20;102547.97;;;16.36;43.44
26839;BME280;40088;51.214;6.786;2023-04-04T10:45:21;102539.72;;;16.36;44.18
26839;BME280;40088;51.214;6.786;2023-04-04T10:55:23;102527.69;;;16.37;44.75
26839;BME280;40088;51.214;6.786;2023-04-04T11:05:36;102512.03;;;16.38;44.60
26839;BME280;40088;51.214;6.786;2023-04-04T11:15:57;102500.19;;;16.37;44.82
26839;BME280;40088;51.214;6.786;2023-04-04T11:25:58;102495.53;;;16.38;45.30
26839;BME280;40088;51.214;6.786;2023-04-04T11:36:03;102489.16;;;16.37;45.36
26839;BME280;40088;51.214;6.786;2023-04-04T11:46:04;102488.31;;;16.37;45.50
26839;BME280;40088;51.214;6.786;2023-04-04T11:56:14;102475.41;;;16.37;45.80
26839;BME280;40088;51.214;6.786;2023-04-04T12:06:14;102460.09;;;16.35;45.94
26839;BME280;40088;51.214;6.786;2023-04-04T12:16:18;102432.59;;;16.35;45.98
26839;BME280;40088;51.214;6.786;2023-04-04T12:26:19;102444.28;;;16.37;46.14
26839;BME280;40088;51.214;6.786;2023-04-04T12:36:19;102435.91;;;16.38;46.10
26839;BME280;40088;51.214;6.786;2023-04-04T12:46:25;102401.28;;;16.36;46.33
26839;BME280;40088;51.214;6.786;2023-04-04T12:56:26;102398.53;;;16.36;46.56
26839;BME280;40088;51.214;6.786;2023-04-04T13:06:28;102380.16;;;16.36;46.74
26839;BME280;40088;51.214;6.786;2023-04-04T13:16:33;102361.75;;;16.37;46.79
26839;BME280;40088;51.214;6.786;2023-04-04T13:26:37;102362.63;;;16.37;46.67
26839;BME280;40088;51.214;6.786;2023-04-04T13:36:37;102349.59;;;16.39;46.94
26839;BME280;40088;51.214;6.786;2023-04-04T13:46:37;102348.72;;;16.39;46.84
26839;BME280;40088;51.214;6.786;2023-04-04T13:56:38;102324.09;;;16.37;46.97
26839;BME280;40088;51.214;6.786;2023-04-04T14:06:39;102318.59;;;16.37;47.08
26839;BME280;40088;51.214;6.786;2023-04-04T14:16:39;102299.22;;;16.39;46.98
26839;BME280;40088;51.214;6.786;2023-04-04T14:26:39;102297.44;;;16.38;47.29
26839;BME280;40088;51.214;6.786;2023-04-04T14:36:39;102285.44;;;16.39;47.22
26839;BME280;40088;51.214;6.786;2023-04-04T14:46:40;102281.84;;;16.38;47.35
26839;BME280;40088;51.214;6.786;2023-04-04T14:56:40;102259.97;;;16.37;47.25
26839;BME280;40088;51.214;6.786;2023-04-04T15:06:43;102252.44;;;16.39;47.31
26839;BME280;40088;51.214;6.786;2023-04-04T15:16:43;102247.06;;;16.37;47.55
26839;BME280;40088;51.214;6.786;2023-04-04T15:26:43;102242.44;;;16.38;47.47
26839;BME280;40088;51.214;6.786;2023-04-04T15:36:43;102226.81;;;16.38;47.60
26839;BME280;40088;51.214;6.786;2023-04-04T15:46:44;102233.19;;;16.39;47.61
26839;BME280;40088;51.214;6.786;2023-04-04T15:56:44;102225.78;;;16.39;47.73
26839;BME280;40088;51.214;6.786;2023-04-04T16:06:44;102213.75;;;16.58;46.70
26839;BME280;40088;51.214;6.786;2023-04-04T16:16:45;102211.75;;;16.68;45.53
26839;BME280;40088;51.214;6.786;2023-04-04T16:26:45;102208.56;;;16.55;45.29
26839;BME280;40088;51.214;6.786;2023-04-04T16:36:49;102200.06;;;16.49;45.00
26839;BME280;40088;51.214;6.786;2023-04-04T16:46:49;102199.38;;;16.47;45.98
26839;BME280;40088;51.214;6.786;2023-04-04T16:56:49;102194.03;;;16.45;46.46
26839;BME280;40088;51.214;6.786;2023-04-04T17:06:50;102189.69;;;16.42;46.73
26839;BME280;40088;51.214;6.786;2023-04-04T17:16:50;102187.09;;;16.41;46.86
26839;BME280;40088;51.214;6.786;2023-04-04T17:26:51;102186.25;;;16.40;47.21
26839;BME280;40088;51.214;6.786;2023-04-04T17:36:52;102181.59;;;16.41;47.16
26839;BME280;40088;51.214;6.786;2023-04-04T17:46:52;102182.63;;;16.40;47.39
26839;BME280;40088;51.214;6.786;2023-04-04T17:56:54;102170.91;;;16.38;47.27
26839;BME280;40088;51.214;6.786;2023-04-04T18:06:55;102179.88;;;16.40;47.59
26839;BME280;40088;51.214;6.786;2023-04-04T18:16:55;102174.38;;;16.40;47.44
26839;BME280;40088;51.214;6.786;2023-04-04T18:26:56;102168.88;;;16.40;47.62
26839;BME280;40088;51.214;6.786;2023-04-04T18:36:56;102160.78;;;16.38;47.51
26839;BME280;40088;51.214;6.786;2023-04-04T18:46:56;102173.53;;;16.39;47.44
26839;BME280;40088;51.214;6.786;2023-04-04T18:56:59;102179.16;;;16.38;47.61
26839;BME280;40088;51.214;6.786;2023-04-04T19:07:03;102176.41;;;16.38;47.53
26839;BME280;40088;51.214;6.786;2023-04-04T19:17:05;102188.44;;;16.37;47.83
26839;BME280;40088;51.214;6.786;2023-04-04T19:27:05;102198.41;;;16.38;47.62
26839;BME280;40088;51.214;6.786;2023-04-04T19:37:06;102198.41;;;16.38;47.62
26839;BME280;40088;51.214;6.786;2023-04-04T19:47:09;102200.31;;;16.37;47.57
26839;BME280;40088;51.214;6.786;2023-04-04T19:57:16;102202.06;;;16.38;47.76
26839;BME280;40088;51.214;6.786;2023-04-04T20:07:17;102202.19;;;16.37;47.70
26839;BME280;40088;51.214;6.786;2023-04-04T20:17:18;102199.44;;;16.37;47.67
26839;BME280;40088;51.214;6.786;2023-04-04T20:27:22;102202.19;;;16.37;47.72
26839;BME280;40088;51.214;6.786;2023-04-04T20:37:23;102204.94;;;16.37;47.97
26839;BME280;40088;51.214;6.786;2023-04-04T20:47:44;102201.16;;;16.38;47.55
26839;BME280;40088;51.214;6.786;2023-04-04T20:57:45;102203.22;;;16.36;47.85
26839;BME280;40088;51.214;6.786;2023-04-04T21:07:46;102196.69;;;16.37;47.94
26839;BME280;40088;51.214;6.786;2023-04-04T21:17:46;102188.44;;;16.37;47.70
26839;BME280;40088;51.214;6.786;2023-04-04T21:27:50;102178.47;;;16.36;47.95
26839;BME280;40088;51.214;6.786;2023-04-04T21:37:52;102172.97;;;16.36;47.76
26839;BME280;40088;51.214;6.786;2023-04-04T21:47:53;102175.72;;;16.36;47.76
26839;BME280;40088;51.214;6.786;2023-04-04T21:57:53;102154.56;;;16.36;48.00
26839;BME280;40088;51.214;6.786;2023-04-04T22:07:53;102159.38;;;16.34;48.05
26839;BME280;40088;51.214;6.786;2023-04-04T22:17:57;102165.72;;;16.35;47.91
26839;BME280;40088;51.214;6.786;2023-04-04T22:28:04;102150.25;;;16.34;48.08
26839;BME280;40088;51.214;6.786;2023-04-04T22:38:07;102150.25;;;16.34;47.93
26839;BME280;40088;51.214;6.786;2023-04-04T22:48:07;102156.63;;;16.34;47.97
26839;BME280;40088;51.214;6.786;2023-04-04T22:58:08;102140.25;;;16.33;48.55
26839;BME280;40088;51.214;6.786;2023-04-04T23:08:08;102138.53;;;16.32;48.14
26839;BME280;40088;51.214;6.786;2023-04-04T23:18:09;102127.53;;;16.32;47.91
26839;BME280;40088;51.214;6.786;2023-04-04T23:28:09;102128.56;;;16.31;48.25
26839;BME280;40088;51.214;6.786;2023-04-04T23:38:10;102119.28;;;16.32;48.25
26839;BME280;40088;51.214;6.786;2023-04-04T23:48:12;102106.56;;;16.31;48.18
26839;BME280;40088;51.214;6.786;2023-04-04T23:58:12;102099.31;;;16.30;48.10
